Time;durP1;ratioP1;P1;durP2;ratioP2;P2;SDS_P1;SDS_P2;PMS_P1;PMS_P2;Temp;Humidity;BMP_temperature;BMP_pressure;BME280_temperature;BME280_humidity;BME280_pressure;Samples;Min_cycle;Max_cycle;Signal;HPM_P1;HPM_P2
2021/12/30 00:00:27;;;;;;;52.08;35.42;;;13.50;1.00;;;;;;6125169;23;20433;-84
2021/12/30 00:02:53;;;;;;;50.58;33.63;;;13.40;1.00;;;;;;6125739;23;20006;-84
2021/12/30 00:05:18;;;;;;;51.85;33.75;;;13.50;1.00;;;;;;6123016;23;20037;-84
2021/12/30 00:07:44;;;;;;;41.45;30.60;;;13.40;1.00;;;;;;6125476;23;20012;-84
2021/12/30 00:10:10;;;;;;;40.10;29.70;;;13.30;1.00;;;;;;6125287;23;20006;-83
2021/12/30 00:12:36;;;;;;;40.33;30.17;;;13.30;1.00;;;;;;6125000;23;20030;-84
2021/12/30 00:15:05;;;;;;;47.10;34.80;;;13.30;1.00;;;;;;6125278;23;19998;-84
2021/12/30 00:17:30;;;;;;;49.50;35.05;;;13.40;1.00;;;;;;6126006;23;20076;-84
2021/12/30 00:19:56;;;;;;;52.17;36.67;;;13.40;1.00;;;;;;6125076;23;20029;-83
2021/12/30 00:22:23;;;;;;;45.30;32.88;;;13.40;1.00;;;;;;6125574;23;20018;-84
2021/12/30 00:24:48;;;;;;;45.33;33.22;;;13.30;1.00;;;;;;6124475;23;20029;-84
2021/12/30 00:27:14;;;;;;;45.03;33.13;;;13.40;1.00;;;;;;6124526;23;20377;-84
2021/12/30 00:29:40;;;;;;;40.47;30.60;;;13.40;1.00;;;;;;6125689;23;20069;-83
2021/12/30 00:32:06;;;;;;;39.67;30.52;;;13.40;1.00;;;;;;6124954;23;20006;-84
2021/12/30 00:34:31;;;;;;;42.47;32.25;;;13.40;1.00;;;;;;6124211;23;20543;-83
2021/12/30 00:36:57;;;;;;;36.33;28.83;;;13.40;1.00;;;;;;6124775;23;20337;-84
2021/12/30 00:39:22;;;;;;;38.95;29.30;;;13.30;1.00;;;;;;6125324;23;20006;-84
2021/12/30 00:41:48;;;;;;;39.05;30.10;;;13.40;1.00;;;;;;6125123;23;20013;-83
2021/12/30 00:44:14;;;;;;;42.90;30.40;;;13.40;1.00;;;;;;6125022;23;20006;-84
2021/12/30 00:46:39;;;;;;;37.35;29.38;;;13.40;1.00;;;;;;6124429;23;20341;-84
2021/12/30 00:49:05;;;;;;;39.67;29.30;;;13.30;1.00;;;;;;6123643;23;20349;-84
2021/12/30 00:51:31;;;;;;;36.85;27.80;;;13.30;1.00;;;;;;6123484;23;20026;-83
2021/12/30 00:53:56;;;;;;;37.45;29.02;;;13.30;1.00;;;;;;6124682;23;20332;-84
2021/12/30 00:56:22;;;;;;;41.40;30.63;;;13.30;1.00;;;;;;6124887;23;20036;-84
2021/12/30 00:58:48;;;;;;;40.17;29.35;;;13.40;1.00;;;;;;6124760;23;20497;-84
2021/12/30 01:01:13;;;;;;;46.72;32.20;;;13.40;1.00;;;;;;6124833;23;20010;-84
2021/12/30 01:03:39;;;;;;;42.80;30.77;;;13.40;1.00;;;;;;6124907;23;20033;-83
2021/12/30 01:06:05;;;;;;;49.22;32.63;;;13.30;1.00;;;;;;6124059;23;20053;-84
2021/12/30 01:08:32;;;;;;;40.85;30.13;;;13.30;1.00;;;;;;6124671;23;20006;-84
2021/12/30 01:10:58;;;;;;;39.08;28.00;;;13.30;1.00;;;;;;6124458;23;20395;-84
2021/12/30 01:13:27;;;;;;;41.80;29.48;;;13.40;1.00;;;;;;6124613;23;20147;-84
2021/12/30 01:16:00;;;;;;;44.20;30.73;;;13.30;1.00;;;;;;6125249;23;20049;-84
2021/12/30 01:18:41;;;;;;;41.25;29.98;;;13.30;1.00;;;;;;6123330;23;20006;-84
2021/12/30 01:21:11;;;;;;;40.38;29.55;;;13.30;1.00;;;;;;6124973;23;20428;-84
2021/12/30 01:23:41;;;;;;;38.10;28.25;;;13.30;1.00;;;;;;6124182;23;20009;-84
2021/12/30 01:26:07;;;;;;;43.17;29.48;;;13.30;1.00;;;;;;6124260;23;20076;-84
2021/12/30 01:28:33;;;;;;;42.05;28.98;;;13.30;1.00;;;;;;6124566;23;20002;-84
2021/12/30 01:30:59;;;;;;;36.58;28.02;;;13.40;1.00;;;;;;6124786;23;20009;-84
2021/12/30 01:33:24;;;;;;;38.78;28.98;;;13.30;1.00;;;;;;6123936;23;20508;-84
2021/12/30 01:35:50;;;;;;;41.30;29.20;;;13.40;1.00;;;;;;6124460;23;20002;-83
2021/12/30 01:38:16;;;;;;;37.22;27.98;;;13.30;1.00;;;;;;6124566;23;20005;-84
2021/12/30 01:40:44;;;;;;;37.40;27.95;;;13.30;1.00;;;;;;6124726;23;20436;-84
2021/12/30 01:43:11;;;;;;;41.95;29.27;;;13.20;1.00;;;;;;6123653;23;20020;-83
2021/12/30 01:45:39;;;;;;;37.80;28.23;;;13.30;1.00;;;;;;6124705;23;20068;-84
2021/12/30 01:48:05;;;;;;;32.78;25.50;;;13.30;1.00;;;;;;6124769;23;20016;-84
2021/12/30 01:50:31;;;;;;;36.78;27.20;;;13.30;1.00;;;;;;6123432;23;20068;-84
2021/12/30 01:52:58;;;;;;;30.45;25.42;;;13.30;1.00;;;;;;6123692;23;20006;-84
2021/12/30 01:55:24;;;;;;;36.03;26.98;;;13.30;1.00;;;;;;6123764;23;20010;-84
2021/12/30 01:57:50;;;;;;;33.92;25.38;;;13.10;1.00;;;;;;6124084;23;20030;-84
2021/12/30 02:00:20;;;;;;;45.28;29.90;;;13.30;1.00;;;;;;6124657;23;20006;-84
2021/12/30 02:02:46;;;;;;;39.75;28.33;;;13.30;1.00;;;;;;6124221;23;20036;-84
2021/12/30 02:05:12;;;;;;;33.50;25.13;;;13.40;1.00;;;;;;6124526;23;20444;-84
2021/12/30 02:07:39;;;;;;;35.08;25.10;;;13.40;1.00;;;;;;6123755;23;19998;-84
2021/12/30 02:10:05;;;;;;;44.42;28.88;;;13.40;1.00;;;;;;6124281;23;20040;-84
2021/12/30 02:12:34;;;;;;;44.13;29.40;;;13.30;1.00;;;;;;6124396;23;20397;-84
2021/12/30 02:14:59;;;;;;;40.50;28.33;;;13.40;1.00;;;;;;6124162;23;20425;-84
2021/12/30 02:17:26;;;;;;;34.70;26.05;;;13.10;1.00;;;;;;6124131;23;20138;-84
2021/12/30 02:20:06;;;;;;;43.58;28.10;;;13.30;1.00;;;;;;6124415;23;20138;-84
2021/12/30 02:22:32;;;;;;;38.30;27.13;;;13.20;1.00;;;;;;6124393;23;20433;-84
2021/12/30 02:24:59;;;;;;;35.28;25.98;;;13.20;1.00;;;;;;6123912;23;19998;-83
2021/12/30 02:27:27;;;;;;;29.75;21.90;;;13.30;1.00;;;;;;6124183;23;20093;-84
2021/12/30 02:29:52;;;;;;;13.38;11.13;;;13.30;1.00;;;;;;6124097;23;20050;-84
2021/12/30 02:32:21;;;;;;;14.95;12.90;;;13.20;1.00;;;;;;6124288;23;20006;-83
2021/12/30 02:34:47;;;;;;;14.82;12.35;;;13.30;1.00;;;;;;6124347;23;20360;-84
2021/12/30 02:37:16;;;;;;;15.48;12.98;;;13.30;1.00;;;;;;6123768;23;20010;-84
2021/12/30 02:39:46;;;;;;;19.58;14.55;;;13.40;1.00;;;;;;6123999;23;20006;-84
2021/12/30 02:42:12;;;;;;;13.30;11.90;;;13.40;1.00;;;;;;6124379;23;20014;-84
2021/12/30 02:44:37;;;;;;;17.52;14.27;;;13.50;1.00;;;;;;6124430;23;20002;-84
2021/12/30 02:47:03;;;;;;;13.45;10.10;;;13.40;1.00;;;;;;6124288;23;20006;-84
2021/12/30 02:49:29;;;;;;;9.80;8.75;;;13.50;1.00;;;;;;6124079;23;20033;-83
2021/12/30 02:51:54;;;;;;;16.35;13.23;;;13.40;1.00;;;;;;6122708;23;20113;-83
2021/12/30 02:54:20;;;;;;;12.43;10.55;;;13.30;1.00;;;;;;6125880;23;20006;-84
2021/12/30 02:56:47;;;;;;;9.65;8.65;;;13.40;1.00;;;;;;6123714;23;20002;-84
2021/12/30 02:59:14;;;;;;;19.05;15.05;;;13.50;1.00;;;;;;6123996;23;20056;-84
2021/12/30 03:01:40;;;;;;;13.95;10.57;;;13.50;1.00;;;;;;6123871;23;20076;-83
2021/12/30 03:04:06;;;;;;;16.73;13.45;;;13.50;1.00;;;;;;6124011;23;20006;-83
2021/12/30 03:06:32;;;;;;;12.88;10.10;;;13.40;1.00;;;;;;6124416;23;20010;-84
2021/12/30 03:08:58;;;;;;;11.20;9.25;;;13.50;1.00;;;;;;6124473;23;20082;-84
2021/12/30 03:11:26;;;;;;;9.98;8.93;;;13.50;1.00;;;;;;6125049;23;20048;-84
2021/12/30 03:13:53;;;;;;;10.82;8.55;;;13.50;1.00;;;;;;6124983;23;19998;-83
2021/12/30 03:16:22;;;;;;;10.85;8.10;;;13.40;1.00;;;;;;6126814;23;20440;-84
2021/12/30 03:18:49;;;;;;;8.05;6.95;;;13.40;1.00;;;;;;6125163;23;20334;-83
2021/12/30 03:21:18;;;;;;;8.10;7.30;;;13.50;1.00;;;;;;6125038;23;20017;-84
2021/12/30 03:23:44;;;;;;;8.40;7.07;;;13.50;1.00;;;;;;6125652;23;20017;-84
2021/12/30 03:26:11;;;;;;;8.35;6.50;;;13.60;1.00;;;;;;6125979;23;20033;-84
2021/12/30 03:28:42;;;;;;;14.20;11.05;;;13.60;1.00;;;;;;6125541;23;20006;-84
2021/12/30 03:31:08;;;;;;;26.02;17.95;;;13.30;1.00;;;;;;6125518;23;20006;-84
2021/12/30 03:33:34;;;;;;;39.75;26.20;;;13.30;1.00;;;;;;6125785;23;20453;-84
2021/12/30 03:36:02;;;;;;;37.88;24.75;;;13.30;1.00;;;;;;6124934;23;20006;-84
2021/12/30 03:38:34;;;;;;;28.95;21.77;;;13.40;1.00;;;;;;6125614;23;20016;-84
2021/12/30 03:41:00;;;;;;;28.45;19.15;;;13.40;1.00;;;;;;6125886;23;20010;-84
2021/12/30 03:43:27;;;;;;;39.28;24.55;;;13.40;1.00;;;;;;6125312;23;20008;-84
2021/12/30 03:45:53;;;;;;;65.75;25.02;;;13.40;1.00;;;;;;6125458;23;20002;-84
2021/12/30 03:48:19;;;;;;;28.65;21.67;;;13.30;1.00;;;;;;6125245;23;20006;-84
2021/12/30 03:50:45;;;;;;;30.77;22.80;;;13.40;1.00;;;;;;6124313;23;20040;-84
2021/12/30 03:53:13;;;;;;;36.38;25.30;;;13.10;1.00;;;;;;6125619;23;20017;-84
2021/12/30 03:55:40;;;;;;;52.65;29.38;;;13.20;1.00;;;;;;6125988;23;20006;-83
2021/12/30 03:58:06;;;;;;;43.10;27.38;;;13.20;1.00;;;;;;6125005;23;20016;-84
2021/12/30 04:00:33;;;;;;;43.90;25.73;;;13.10;1.00;;;;;;6125245;23;20344;-84
2021/12/30 04:02:59;;;;;;;82.85;26.55;;;13.20;1.00;;;;;;6098838;23;20359;-84
2021/12/30 04:05:25;;;;;;;50.83;26.50;;;13.00;1.00;;;;;;6125009;23;20006;-84
2021/12/30 04:07:51;;;;;;;36.53;23.65;;;13.10;1.00;;;;;;6125683;23;20010;-84
2021/12/30 04:10:20;;;;;;;39.60;25.17;;;13.20;1.00;;;;;;6125347;23;20008;-83
2021/12/30 04:12:46;;;;;;;33.05;24.58;;;13.20;1.00;;;;;;6126008;23;20005;-84
2021/12/30 04:15:12;;;;;;;37.13;25.05;;;13.30;1.00;;;;;;6125368;23;20013;-84
2021/12/30 04:17:38;;;;;;;36.92;24.92;;;13.30;1.00;;;;;;6124870;23;20006;-84
2021/12/30 04:20:07;;;;;;;51.95;26.42;;;13.30;1.00;;;;;;6124817;23;20440;-84
2021/12/30 04:22:37;;;;;;;37.13;25.52;;;13.20;1.00;;;;;;6125711;23;20326;-84
2021/12/30 04:25:05;;;;;;;35.50;24.88;;;13.10;1.00;;;;;;6125009;23;20477;-84
2021/12/30 04:27:30;;;;;;;37.08;24.58;;;13.20;1.00;;;;;;6124860;23;20005;-84
2021/12/30 04:29:56;;;;;;;36.67;25.50;;;13.30;1.00;;;;;;6125178;23;20013;-84
2021/12/30 04:32:22;;;;;;;36.22;24.80;;;13.30;1.00;;;;;;6124698;23;20005;-84
2021/12/30 04:34:47;;;;;;;41.92;25.40;;;13.30;1.00;;;;;;6124976;23;20006;-84
2021/12/30 04:37:13;;;;;;;32.85;23.73;;;13.30;1.00;;;;;;6124979;23;19998;-84
2021/12/30 04:39:38;;;;;;;27.80;22.33;;;13.30;1.00;;;;;;6124964;23;20370;-83
2021/12/30 04:42:04;;;;;;;31.50;22.02;;;13.30;1.00;;;;;;6125239;23;20018;-84
2021/12/30 04:44:30;;;;;;;27.52;21.23;;;13.30;1.00;;;;;;6124547;23;20006;-84
2021/12/30 04:46:58;;;;;;;33.30;22.30;;;13.30;1.00;;;;;;6124617;23;20014;-84
2021/12/30 04:49:24;;;;;;;38.78;25.00;;;13.20;1.00;;;;;;6125032;23;20009;-83
2021/12/30 04:51:53;;;;;;;31.45;23.13;;;13.10;1.00;;;;;;6124708;23;20026;-84
2021/12/30 04:54:19;;;;;;;34.13;25.98;;;13.30;1.00;;;;;;6125919;23;20017;-84
2021/12/30 04:56:45;;;;;;;34.92;25.13;;;13.40;1.00;;;;;;6124775;23;20006;-84
2021/12/30 04:59:11;;;;;;;31.67;22.98;;;13.40;1.00;;;;;;6124809;23;20010;-83
2021/12/30 05:01:40;;;;;;;36.22;24.30;;;13.40;1.00;;;;;;6124580;23;20018;-84
2021/12/30 05:04:06;;;;;;;33.08;22.65;;;13.30;1.00;;;;;;6125651;23;20445;-84
2021/12/30 05:06:34;;;;;;;31.30;23.20;;;13.30;1.00;;;;;;6124796;23;20009;-83
2021/12/30 05:09:00;;;;;;;32.45;22.27;;;13.30;1.00;;;;;;6124589;23;20002;-84
2021/12/30 05:11:25;;;;;;;28.95;21.65;;;13.40;1.00;;;;;;6124493;23;20006;-84
2021/12/30 05:13:51;;;;;;;31.67;22.67;;;13.30;1.00;;;;;;6124525;23;20006;-84
2021/12/30 05:16:20;;;;;;;25.58;19.15;;;13.30;1.00;;;;;;6124768;23;19998;-84
2021/12/30 05:18:46;;;;;;;22.98;18.13;;;13.30;1.00;;;;;;6124302;23;20002;-84
2021/12/30 05:21:12;;;;;;;32.70;21.23;;;13.40;1.00;;;;;;6125174;23;20014;-84
2021/12/30 05:23:38;;;;;;;23.65;17.95;;;13.30;1.00;;;;;;6124355;23;20053;-84
2021/12/30 05:26:04;;;;;;;27.30;18.58;;;13.30;1.00;;;;;;6125230;23;20069;-84
2021/12/30 05:28:30;;;;;;;25.00;17.42;;;13.40;1.00;;;;;;6124648;23;20017;-84
2021/12/30 05:30:56;;;;;;;24.67;17.88;;;13.30;1.00;;;;;;6124092;23;20013;-84
2021/12/30 05:33:21;;;;;;;22.50;15.18;;;13.40;1.00;;;;;;6124629;23;19998;-84
2021/12/30 05:35:47;;;;;;;26.02;17.92;;;13.40;1.00;;;;;;6123709;23;20006;-84
2021/12/30 05:38:16;;;;;;;25.60;16.60;;;13.40;1.00;;;;;;6124558;23;20002;-84
2021/12/30 05:40:42;;;;;;;23.77;16.67;;;13.40;1.00;;;;;;6124198;23;20013;-84
2021/12/30 05:43:08;;;;;;;29.38;16.73;;;13.30;1.00;;;;;;6124022;23;20396;-84
2021/12/30 05:45:34;;;;;;;26.65;17.73;;;13.30;1.00;;;;;;6124072;23;20002;-84
2021/12/30 05:47:59;;;;;;;24.02;16.20;;;13.40;1.00;;;;;;6123827;23;20452;-84
2021/12/30 05:50:28;;;;;;;21.90;14.82;;;13.40;1.00;;;;;;6123794;23;20009;-84
2021/12/30 05:52:55;;;;;;;20.52;13.85;;;13.40;1.00;;;;;;6124378;23;20013;-83
2021/12/30 05:55:21;;;;;;;21.65;13.88;;;13.40;1.00;;;;;;6124301;23;20013;-84
2021/12/30 05:57:47;;;;;;;19.85;13.20;;;13.50;1.00;;;;;;6124647;23;20077;-84
2021/12/30 06:00:15;;;;;;;17.85;12.07;;;13.40;1.00;;;;;;6124261;23;20005;-84
2021/12/30 06:02:41;;;;;;;23.52;13.63;;;13.40;1.00;;;;;;6124344;23;20403;-84
2021/12/30 06:05:07;;;;;;;16.75;11.82;;;13.40;1.00;;;;;;6123856;23;20002;-84
2021/12/30 06:07:33;;;;;;;18.25;11.93;;;13.40;1.00;;;;;;6123544;23;20008;-83
2021/12/30 06:09:59;;;;;;;18.85;11.90;;;13.40;1.00;;;;;;6124610;23;20010;-83
2021/12/30 06:12:24;;;;;;;19.40;11.52;;;13.40;1.00;;;;;;6124996;23;20448;-84
2021/12/30 06:14:50;;;;;;;18.85;11.30;;;13.40;1.00;;;;;;6124154;23;20084;-84
2021/12/30 06:17:16;;;;;;;19.92;12.43;;;13.30;1.00;;;;;;6124303;23;20403;-84
2021/12/30 06:19:45;;;;;;;31.38;17.00;;;13.30;1.00;;;;;;6124116;23;20006;-84
2021/12/30 06:22:12;;;;;;;27.63;17.50;;;13.30;1.00;;;;;;6124360;23;20018;-84
2021/12/30 06:24:38;;;;;;;26.90;17.00;;;13.30;1.00;;;;;;6124161;23;19998;-83
2021/12/30 06:27:04;;;;;;;22.15;14.65;;;13.30;1.00;;;;;;6124587;23;20336;-83
2021/12/30 06:29:30;;;;;;;23.20;15.48;;;13.30;1.00;;;;;;6123774;23;20009;-84
2021/12/30 06:31:56;;;;;;;24.55;15.60;;;13.40;1.00;;;;;;6124083;23;20002;-84
2021/12/30 06:34:22;;;;;;;26.40;14.80;;;13.30;1.00;;;;;;6124305;23;20002;-83
2021/12/30 06:36:47;;;;;;;20.85;13.15;;;13.40;1.00;;;;;;6123879;23;20002;-85
2021/12/30 06:39:13;;;;;;;25.13;13.40;;;13.40;1.00;;;;;;6123879;23;20447;-81
2021/12/30 06:41:39;;;;;;;24.27;14.13;;;13.40;1.00;;;;;;6124370;23;20021;-81
2021/12/30 06:44:05;;;;;;;22.05;13.25;;;13.20;1.00;;;;;;6124304;23;20448;-86
2021/12/30 06:46:30;;;;;;;19.38;10.70;;;13.30;1.00;;;;;;6126127;23;20006;-82
2021/12/30 06:48:56;;;;;;;19.77;10.70;;;13.20;1.00;;;;;;6125575;23;20002;-83
2021/12/30 06:51:26;;;;;;;18.15;11.25;;;13.20;1.00;;;;;;6125435;23;20357;-82
2021/12/30 06:53:54;;;;;;;20.92;10.80;;;13.30;1.00;;;;;;6126749;23;20454;-83
2021/12/30 06:56:21;;;;;;;15.85;10.10;;;13.20;1.00;;;;;;6124957;23;20036;-82
2021/12/30 06:58:46;;;;;;;17.55;11.05;;;13.20;1.00;;;;;;6126167;23;20077;-83
2021/12/30 07:01:12;;;;;;;23.52;12.95;;;13.20;1.00;;;;;;6125859;23;20014;-81
2021/12/30 07:03:38;;;;;;;19.55;12.02;;;13.20;1.00;;;;;;6126085;23;20373;-82
2021/12/30 07:06:03;;;;;;;20.73;12.85;;;13.30;1.00;;;;;;6126228;23;20130;-81
2021/12/30 07:08:29;;;;;;;21.55;12.90;;;13.20;1.00;;;;;;6126165;23;20333;-84
2021/12/30 07:10:55;;;;;;;21.38;12.73;;;13.00;1.00;;;;;;6124841;23;20005;-83
2021/12/30 07:13:20;;;;;;;21.33;13.80;;;13.10;1.00;;;;;;6124672;23;20392;-84
2021/12/30 07:15:46;;;;;;;22.35;13.57;;;13.10;1.00;;;;;;6126055;23;20361;-84
2021/12/30 07:18:12;;;;;;;18.45;12.57;;;13.10;1.00;;;;;;6125987;23;20006;-84
2021/12/30 07:20:38;;;;;;;16.98;10.93;;;13.10;1.00;;;;;;6125565;23;20002;-83
2021/12/30 07:23:03;;;;;;;16.73;11.38;;;13.20;1.00;;;;;;6125189;23;20034;-84
2021/12/30 07:25:29;;;;;;;15.80;11.07;;;13.20;1.00;;;;;;6125446;23;20444;-84
2021/12/30 07:27:55;;;;;;;16.33;11.82;;;13.20;1.00;;;;;;6100204;23;20071;-85
2021/12/30 07:30:23;;;;;;;16.13;11.25;;;13.20;1.00;;;;;;6126219;23;20124;-86
2021/12/30 07:32:50;;;;;;;16.88;10.80;;;13.20;1.00;;;;;;6124621;23;20002;-82
2021/12/30 07:35:18;;;;;;;16.08;11.35;;;13.20;1.00;;;;;;6125984;23;20085;-83
2021/12/30 07:37:43;;;;;;;14.60;10.85;;;13.20;1.00;;;;;;6125608;23;20010;-82
2021/12/30 07:40:10;;;;;;;15.30;10.32;;;13.30;1.00;;;;;;6125448;23;20085;-83
2021/12/30 07:42:36;;;;;;;18.13;10.80;;;13.20;1.00;;;;;;6125244;23;20013;-83
2021/12/30 07:45:03;;;;;;;15.80;10.77;;;13.20;1.00;;;;;;6125769;23;20644;-83
2021/12/30 07:47:28;;;;;;;15.27;10.35;;;13.30;1.00;;;;;;6124878;23;20006;-86
2021/12/30 07:49:54;;;;;;;13.75;9.98;;;13.30;1.00;;;;;;6125199;23;20081;-82
2021/12/30 07:52:20;;;;;;;12.00;9.80;;;13.30;1.00;;;;;;6126531;23;20002;-84
2021/12/30 07:54:45;;;;;;;12.90;9.93;;;13.30;1.00;;;;;;6125723;23;20389;-84
2021/12/30 07:57:18;;;;;;;15.90;10.35;;;13.30;1.00;;;;;;6125599;23;20329;-82
2021/12/30 07:59:43;;;;;;;13.98;10.27;;;13.30;1.00;;;;;;6125769;23;20013;-79
2021/12/30 08:02:09;;;;;;;13.07;9.35;;;13.30;1.00;;;;;;6125440;23;20018;-81
2021/12/30 08:04:35;;;;;;;15.25;10.30;;;13.40;1.00;;;;;;6125176;23;20009;-81
2021/12/30 08:07:00;;;;;;;16.55;10.95;;;13.50;1.00;;;;;;6125830;23;20054;-90
2021/12/30 08:09:26;;;;;;;18.05;13.38;;;13.50;1.00;;;;;;6125897;23;20009;-87
2021/12/30 08:11:52;;;;;;;18.00;13.50;;;13.40;1.00;;;;;;6125840;23;20036;-91
2021/12/30 08:14:17;;;;;;;22.92;16.25;;;13.40;1.00;;;;;;6100109;23;20009;-88
2021/12/30 08:16:43;;;;;;;22.77;17.05;;;13.40;1.00;;;;;;6126646;23;20089;-87
2021/12/30 08:19:09;;;;;;;23.75;16.50;;;13.40;1.00;;;;;;6099712;23;20002;-87
2021/12/30 08:21:34;;;;;;;22.35;16.58;;;13.40;1.00;;;;;;6125505;23;20070;-86
2021/12/30 08:24:00;;;;;;;22.67;16.20;;;13.40;1.00;;;;;;6125248;23;20065;-88
2021/12/30 08:26:25;;;;;;;23.85;17.00;;;13.50;1.00;;;;;;6125766;23;20005;-88
2021/12/30 08:28:51;;;;;;;23.10;16.67;;;13.60;1.00;;;;;;6125175;23;20026;-90
2021/12/30 08:31:17;;;;;;;24.88;17.40;;;13.70;1.00;;;;;;6099646;23;20002;-87
2021/12/30 08:33:42;;;;;;;20.83;16.55;;;13.70;1.00;;;;;;6125139;23;20006;-85
2021/12/30 08:36:08;;;;;;;27.95;19.73;;;13.70;1.00;;;;;;6125344;23;20318;-87
2021/12/30 08:38:34;;;;;;;27.23;19.48;;;13.80;1.00;;;;;;6124648;23;20093;-83
2021/12/30 08:41:00;;;;;;;27.67;19.48;;;13.80;1.00;;;;;;6123078;23;20136;-89
2021/12/30 08:43:26;;;;;;;25.58;19.67;;;13.70;1.00;;;;;;6124152;23;20033;-86
2021/12/30 08:45:52;;;;;;;27.85;20.75;;;13.70;1.00;;;;;;6123706;23;20069;-87
2021/12/30 08:48:20;;;;;;;26.95;20.55;;;13.80;1.00;;;;;;6097827;23;20013;-89
2021/12/30 08:50:46;;;;;;;27.10;19.58;;;13.90;1.00;;;;;;6123918;23;20104;-87
2021/12/30 08:53:13;;;;;;;30.73;19.98;;;14.00;1.00;;;;;;6123999;23;20027;-86
2021/12/30 08:55:39;;;;;;;33.33;19.60;;;13.80;1.00;;;;;;6123370;23;20488;-86
2021/12/30 08:58:05;;;;;;;29.02;19.90;;;14.00;1.00;;;;;;6123675;23;20085;-87
2021/12/30 09:00:36;;;;;;;27.48;19.50;;;14.10;1.00;;;;;;6123301;23;20077;-88
2021/12/30 09:03:04;;;;;;;28.73;18.90;;;14.00;1.00;;;;;;6123613;23;20043;-86
2021/12/30 09:05:31;;;;;;;27.83;18.35;;;14.00;1.00;;;;;;6123973;23;20006;-82
2021/12/30 09:07:56;;;;;;;24.70;17.67;;;13.90;1.00;;;;;;6123401;23;20010;-82
2021/12/30 09:10:22;;;;;;;23.50;17.17;;;13.80;1.00;;;;;;6123351;23;20337;-87
2021/12/30 09:12:49;;;;;;;24.48;16.88;;;13.90;1.00;;;;;;6123448;23;19986;-88
2021/12/30 09:15:17;;;;;;;23.67;17.05;;;14.00;1.00;;;;;;6123952;23;20022;-88
2021/12/30 09:17:45;;;;;;;26.23;18.33;;;14.00;1.00;;;;;;6124568;23;20425;-88
2021/12/30 09:20:11;;;;;;;28.92;19.35;;;14.00;1.00;;;;;;6123924;23;20006;-93
2021/12/30 09:22:37;;;;;;;26.55;17.48;;;14.20;1.00;;;;;;6099682;23;20024;-92
2021/12/30 09:25:07;;;;;;;26.17;18.42;;;14.20;1.00;;;;;;6125037;23;20429;-89
2021/12/30 09:27:34;;;;;;;23.02;17.83;;;14.30;1.00;;;;;;6124805;23;20135;-92
2021/12/30 09:30:00;;;;;;;25.13;18.50;;;14.30;1.00;;;;;;6125541;23;20006;-86
2021/12/30 09:32:26;;;;;;;20.30;14.65;;;14.20;1.00;;;;;;6124395;23;20012;-87
2021/12/30 09:34:52;;;;;;;19.02;14.77;;;14.20;1.00;;;;;;6123920;23;20029;-84
2021/12/30 09:37:17;;;;;;;20.65;16.02;;;14.30;1.00;;;;;;6123976;23;20107;-80
2021/12/30 09:39:43;;;;;;;20.17;15.10;;;14.40;1.00;;;;;;6125012;23;20089;-82
2021/12/30 09:42:09;;;;;;;20.40;15.52;;;14.40;1.00;;;;;;6125195;23;20328;-82
2021/12/30 09:44:35;;;;;;;20.30;15.55;;;14.40;1.00;;;;;;6124028;23;20508;-82
2021/12/30 09:47:01;;;;;;;22.23;16.55;;;14.40;1.00;;;;;;6124483;23;20010;-82
2021/12/30 09:49:28;;;;;;;24.13;17.75;;;14.40;1.00;;;;;;6124523;23;20072;-82
2021/12/30 09:51:53;;;;;;;23.75;17.35;;;14.60;1.00;;;;;;6124008;23;20012;-82
2021/12/30 09:54:19;;;;;;;21.17;15.07;;;14.60;1.00;;;;;;6124159;23;20030;-82
2021/12/30 09:56:45;;;;;;;19.90;15.50;;;14.80;1.00;;;;;;6124142;23;20002;-82
2021/12/30 09:59:12;;;;;;;20.75;16.48;;;14.80;1.00;;;;;;6124591;23;20043;-82
2021/12/30 10:01:41;;;;;;;21.08;15.63;;;14.90;1.00;;;;;;6124277;23;20348;-82
2021/12/30 10:04:09;;;;;;;17.35;13.45;;;15.00;1.00;;;;;;6124077;23;20104;-82
2021/12/30 10:06:40;;;;;;;20.83;14.43;;;14.80;1.00;;;;;;6098284;23;20036;-82
2021/12/30 10:09:11;;;;;;;15.10;12.27;;;15.00;1.00;;;;;;6124504;23;20006;-82
2021/12/30 10:11:52;;;;;;;18.13;13.00;;;15.00;1.00;;;;;;6123893;23;20452;-81
2021/12/30 10:14:28;;;;;;;17.42;13.55;;;15.30;1.00;;;;;;6124041;23;20021;-82
2021/12/30 10:17:18;;;;;;;15.18;11.73;;;15.60;1.00;;;;;;6124418;23;20010;-82
2021/12/30 10:19:45;;;;;;;15.50;12.30;;;16.10;1.00;;;;;;6123714;23;20002;-82
2021/12/30 10:22:20;;;;;;;12.30;9.50;;;16.60;1.00;;;;;;6124428;23;20094;-82
2021/12/30 10:24:46;;;;;;;10.85;8.88;;;17.50;1.00;;;;;;6123468;23;19998;-82
2021/12/30 10:27:30;;;;;;;10.82;7.95;;;17.40;1.00;;;;;;6124102;23;20001;-82
2021/12/30 10:29:57;;;;;;;9.82;7.70;;;17.10;1.00;;;;;;6124322;23;20006;-82
2021/12/30 10:32:28;;;;;;;8.40;7.53;;;17.20;1.00;;;;;;6124402;23;20345;-82
2021/12/30 10:35:09;;;;;;;9.98;8.00;;;17.10;1.00;;;;;;6122887;23;20006;-82
2021/12/30 10:37:37;;;;;;;10.00;7.80;;;17.20;1.00;;;;;;6123966;23;20013;-82
2021/12/30 10:40:05;;;;;;;12.15;9.32;;;17.30;1.00;;;;;;6123529;23;19998;-82
2021/12/30 10:42:32;;;;;;;12.15;8.50;;;17.60;1.00;;;;;;6124598;23;20456;-82
2021/12/30 10:44:59;;;;;;;11.05;9.18;;;17.80;1.00;;;;;;6124551;23;20425;-82
2021/12/30 10:47:28;;;;;;;11.68;9.10;;;17.90;1.00;;;;;;6123742;23;20468;-82
2021/12/30 10:50:02;;;;;;;12.88;7.82;;;19.20;1.00;;;;;;6123688;23;20138;-83
2021/12/30 10:52:29;;;;;;;10.43;8.20;;;23.10;1.00;;;;;;6124186;23;20081;-82
2021/12/30 10:54:56;;;;;;;9.57;7.45;;;25.50;1.00;;;;;;6123799;23;20017;-83
2021/12/30 10:57:27;;;;;;;7.93;6.72;;;23.90;1.00;;;;;;6124408;23;20010;-82
2021/12/30 10:59:54;;;;;;;10.35;7.40;;;21.30;1.00;;;;;;6097867;23;20065;-82
2021/12/30 11:02:22;;;;;;;5.30;4.78;;;19.70;1.00;;;;;;6123599;23;20021;-85
2021/12/30 11:05:04;;;;;;;6.00;5.35;;;18.50;1.00;;;;;;6123422;23;20005;-93
2021/12/30 11:07:51;;;;;;;5.93;5.32;;;17.50;1.00;;;;;;6124944;23;20085;-92
2021/12/30 11:10:31;;;;;;;7.15;5.80;;;17.20;1.00;;;;;;6098663;23;20073;-87
2021/12/30 11:13:12;;;;;;;7.22;6.10;;;16.90;1.00;;;;;;6123731;23;20009;-86
2021/12/30 11:15:38;;;;;;;6.35;5.40;;;16.80;1.00;;;;;;6125772;23;20118;-86
2021/12/30 11:18:12;;;;;;;5.47;4.75;;;16.90;1.00;;;;;;6123538;23;20100;-88
2021/12/30 11:20:48;;;;;;;4.93;4.40;;;16.80;1.00;;;;;;6123049;23;20002;-85
2021/12/30 11:23:15;;;;;;;6.72;5.22;;;16.90;1.00;;;;;;6124341;23;20002;-83
2021/12/30 11:25:42;;;;;;;4.50;4.10;;;17.30;1.00;;;;;;6124103;23;20025;-83
2021/12/30 11:28:07;;;;;;;6.13;4.53;;;17.70;1.00;;;;;;6124147;23;20401;-83
2021/12/30 11:30:33;;;;;;;4.30;3.72;;;17.70;1.00;;;;;;6124340;23;20010;-85
2021/12/30 11:32:59;;;;;;;4.20;3.80;;;17.90;1.00;;;;;;6126472;23;20028;-86
2021/12/30 11:35:26;;;;;;;4.70;4.20;;;18.20;1.00;;;;;;6126010;23;20053;-83
2021/12/30 11:37:53;;;;;;;4.60;4.00;;;19.50;1.00;;;;;;6125490;23;20477;-83
2021/12/30 11:40:23;;;;;;;4.78;4.15;;;19.20;1.00;;;;;;6125328;23;20006;-82
2021/12/30 11:42:56;;;;;;;6.40;4.35;;;19.20;1.00;;;;;;6125731;23;20097;-82
2021/12/30 11:45:32;;;;;;;5.40;4.60;;;19.70;1.00;;;;;;6125699;23;20029;-83
2021/12/30 11:48:02;;;;;;;5.47;4.10;;;19.70;1.00;;;;;;6125828;23;20013;-86
2021/12/30 11:50:38;;;;;;;4.68;4.18;;;20.00;1.00;;;;;;6099835;23;20006;-83
2021/12/30 11:53:07;;;;;;;4.60;4.20;;;20.20;1.00;;;;;;6125203;23;20012;-86
2021/12/30 11:55:48;;;;;;;4.10;3.70;;;21.00;1.00;;;;;;6125900;23;20004;-80
2021/12/30 12:01:10;;;;;;;4.22;3.22;;;19.70;1.00;;;;;;6124857;23;20022;-84
2021/12/30 12:04:00;;;;;;;3.30;3.00;;;19.20;1.00;;;;;;6125810;23;20010;-82
2021/12/30 12:06:28;;;;;;;4.43;3.30;;;18.70;1.00;;;;;;6125311;23;20459;-82
2021/12/30 12:09:02;;;;;;;3.65;3.22;;;18.70;1.00;;;;;;6126112;23;20002;-82
2021/12/30 12:11:31;;;;;;;5.03;3.35;;;18.80;1.00;;;;;;6125108;23;20057;-91
2021/12/30 12:14:10;;;;;;;3.80;3.50;;;18.80;1.00;;;;;;6124275;23;20400;-85
2021/12/30 12:17:18;;;;;;;4.65;3.55;;;18.80;1.00;;;;;;6123807;23;20029;-88
2021/12/30 12:19:52;;;;;;;5.35;3.25;;;19.10;1.00;;;;;;6098375;23;20005;-85
2021/12/30 12:22:18;;;;;;;3.67;2.83;;;19.30;1.00;;;;;;6125521;23;20089;-85
2021/12/30 12:24:45;;;;;;;3.00;2.70;;;20.00;1.00;;;;;;6125248;23;20040;-83
2021/12/30 12:27:51;;;;;;;3.40;2.72;;;20.70;1.00;;;;;;6124644;23;20005;-86
2021/12/30 12:30:32;;;;;;;3.10;2.75;;;21.90;1.00;;;;;;6123415;23;20006;-86
2021/12/30 12:33:20;;;;;;;3.20;2.90;;;24.60;1.00;;;;;;6123277;23;20013;-87
2021/12/30 12:35:46;;;;;;;3.95;2.70;;;26.00;1.00;;;;;;6124994;23;20432;-86
2021/12/30 12:38:11;;;;;;;3.55;2.60;;;26.60;1.00;;;;;;6125168;23;20009;-84
2021/12/30 12:40:43;;;;;;;2.85;2.47;;;26.20;1.00;;;;;;6124761;23;19998;-84
2021/12/30 12:43:15;;;;;;;2.38;2.05;;;26.30;1.00;;;;;;6124897;23;20077;-85
2021/12/30 12:46:01;;;;;;;3.17;2.33;;;26.90;1.00;;;;;;6125283;23;20006;-87